sensor_id;sensor_type;location;lat;lon;timestamp;pressure;altitude;pressure_sealevel;temperature;humidity
35655;BME280;21773;50.010;19.972;2023-03-16T00:02:22;98917.31;;;8.34;42.50
35655;BME280;21773;50.010;19.972;2023-03-16T00:05:26;98917.31;;;8.41;42.21
35655;BME280;21773;50.010;19.972;2023-03-16T00:08:31;98906.34;;;8.36;42.35
35655;BME280;21773;50.010;19.972;2023-03-16T00:11:34;98915.63;;;8.26;42.46
35655;BME280;21773;50.010;19.972;2023-03-16T00:14:37;98918.72;;;8.23;42.52
35655;BME280;21773;50.010;19.972;2023-03-16T00:17:40;98913.97;;;8.19;42.71
35655;BME280;21773;50.010;19.972;2023-03-16T00:20:50;98914.78;;;8.13;42.75
35655;BME280;21773;50.010;19.972;2023-03-16T00:23:55;98926.34;;;8.07;43.01
35655;BME280;21773;50.010;19.972;2023-03-16T00:26:58;98932.13;;;8.04;43.19
35655;BME280;21773;50.010;19.972;2023-03-16T00:30:02;98940.59;;;7.94;43.28
35655;BME280;21773;50.010;19.972;2023-03-16T00:33:06;98936.66;;;7.90;43.20
35655;BME280;21773;50.010;19.972;2023-03-16T00:36:09;98939.72;;;7.80;43.38
35655;BME280;21773;50.010;19.972;2023-03-16T00:39:14;98939.69;;;7.74;43.66
35655;BME280;21773;50.010;19.972;2023-03-16T00:42:18;98928.34;;;7.65;43.45
35655;BME280;21773;50.010;19.972;2023-03-16T00:45:22;98946.31;;;7.71;43.76
35655;BME280;21773;50.010;19.972;2023-03-16T00:48:25;98942.34;;;7.67;43.70
35655;BME280;21773;50.010;19.972;2023-03-16T00:51:29;98949.38;;;7.62;43.84
35655;BME280;21773;50.010;19.972;2023-03-16T00:54:36;98944.53;;;7.44;44.41
35655;BME280;21773;50.010;19.972;2023-03-16T00:57:39;98959.19;;;7.42;44.50
35655;BME280;21773;50.010;19.972;2023-03-16T01:00:43;98946.75;;;7.27;44.37
35655;BME280;21773;50.010;19.972;2023-03-16T01:03:46;98955.66;;;7.34;44.39
35655;BME280;21773;50.010;19.972;2023-03-16T01:06:50;98956.06;;;7.31;44.58
35655;BME280;21773;50.010;19.972;2023-03-16T01:09:55;98955.63;;;7.28;44.59
35655;BME280;21773;50.010;19.972;2023-03-16T01:12:59;98965.31;;;7.22;44.96
35655;BME280;21773;50.010;19.972;2023-03-16T01:16:04;98958.44;;;7.13;45.08
35655;BME280;21773;50.010;19.972;2023-03-16T01:19:08;98961.88;;;7.01;45.40
35655;BME280;21773;50.010;19.972;2023-03-16T01:22:14;98966.38;;;6.93;45.48
35655;BME280;21773;50.010;19.972;2023-03-16T01:25:19;98966.13;;;6.88;45.43
35655;BME280;21773;50.010;19.972;2023-03-16T01:28:24;98972.88;;;6.84;45.75
35655;BME280;21773;50.010;19.972;2023-03-16T01:31:28;98974.69;;;6.77;45.78
35655;BME280;21773;50.010;19.972;2023-03-16T01:34:33;98975.66;;;6.70;45.91
35655;BME280;21773;50.010;19.972;2023-03-16T01:37:38;98973.97;;;6.62;45.99
35655;BME280;21773;50.010;19.972;2023-03-16T01:40:51;98979.84;;;6.51;46.38
35655;BME280;21773;50.010;19.972;2023-03-16T01:43:54;98988.47;;;6.46;46.43
35655;BME280;21773;50.010;19.972;2023-03-16T01:47:00;98983.69;;;6.42;46.47
35655;BME280;21773;50.010;19.972;2023-03-16T01:50:04;98982.41;;;6.38;46.89
35655;BME280;21773;50.010;19.972;2023-03-16T01:53:11;98985.50;;;6.35;46.79
35655;BME280;21773;50.010;19.972;2023-03-16T01:56:20;98992.22;;;6.31;47.05
35655;BME280;21773;50.010;19.972;2023-03-16T01:59:30;98991.53;;;6.22;47.17
35655;BME280;21773;50.010;19.972;2023-03-16T02:02:35;98996.88;;;6.22;46.89
35655;BME280;21773;50.010;19.972;2023-03-16T02:05:43;98983.47;;;6.16;47.46
35655;BME280;21773;50.010;19.972;2023-03-16T02:08:50;98992.25;;;6.09;47.20
35655;BME280;21773;50.010;19.972;2023-03-16T02:11:58;98995.50;;;6.05;47.45
35655;BME280;21773;50.010;19.972;2023-03-16T02:15:04;99008.41;;;6.01;47.70
35655;BME280;21773;50.010;19.972;2023-03-16T02:18:08;99007.78;;;5.99;47.43
35655;BME280;21773;50.010;19.972;2023-03-16T02:21:18;99009.53;;;5.92;47.65
35655;BME280;21773;50.010;19.972;2023-03-16T02:24:26;99007.59;;;5.86;47.93
35655;BME280;21773;50.010;19.972;2023-03-16T02:27:37;99016.38;;;5.80;48.06
35655;BME280;21773;50.010;19.972;2023-03-16T02:30:45;99015.91;;;5.77;48.07
35655;BME280;21773;50.010;19.972;2023-03-16T02:33:49;99025.53;;;5.71;48.33
35655;BME280;21773;50.010;19.972;2023-03-16T02:36:55;99033.47;;;5.64;48.65
35655;BME280;21773;50.010;19.972;2023-03-16T02:40:16;99027.66;;;5.61;48.91
35655;BME280;21773;50.010;19.972;2023-03-16T02:43:27;99039.84;;;5.49;49.40
35655;BME280;21773;50.010;19.972;2023-03-16T02:46:59;99020.97;;;5.36;49.68
35655;BME280;21773;50.010;19.972;2023-03-16T02:50:05;99049.63;;;5.42;49.58
35655;BME280;21773;50.010;19.972;2023-03-16T02:53:09;99039.94;;;5.41;49.73
35655;BME280;21773;50.010;19.972;2023-03-16T02:56:12;99046.97;;;5.42;49.65
35655;BME280;21773;50.010;19.972;2023-03-16T02:59:15;99063.00;;;5.42;49.53
35655;BME280;21773;50.010;19.972;2023-03-16T03:02:21;99062.53;;;5.38;50.06
35655;BME280;21773;50.010;19.972;2023-03-16T03:05:24;99062.72;;;5.37;49.92
35655;BME280;21773;50.010;19.972;2023-03-16T03:08:28;99063.91;;;5.34;50.29
35655;BME280;21773;50.010;19.972;2023-03-16T03:11:33;99065.56;;;5.35;50.15
35655;BME280;21773;50.010;19.972;2023-03-16T03:14:37;99060.22;;;5.35;50.44
35655;BME280;21773;50.010;19.972;2023-03-16T03:17:42;99054.97;;;5.27;50.29
35655;BME280;21773;50.010;19.972;2023-03-16T03:20:46;99077.66;;;5.31;50.54
35655;BME280;21773;50.010;19.972;2023-03-16T03:23:51;99074.41;;;5.21;50.67
35655;BME280;21773;50.010;19.972;2023-03-16T03:26:54;99088.16;;;5.18;50.96
35655;BME280;21773;50.010;19.972;2023-03-16T03:29:58;99083.16;;;5.15;51.04
35655;BME280;21773;50.010;19.972;2023-03-16T03:33:04;99098.34;;;5.14;51.14
35655;BME280;21773;50.010;19.972;2023-03-16T03:36:07;99093.56;;;5.10;51.23
35655;BME280;21773;50.010;19.972;2023-03-16T03:39:13;99098.81;;;5.03;51.57
35655;BME280;21773;50.010;19.972;2023-03-16T03:42:19;99107.84;;;5.02;51.14
35655;BME280;21773;50.010;19.972;2023-03-16T03:45:25;99100.47;;;5.04;51.15
35655;BME280;21773;50.010;19.972;2023-03-16T03:48:30;99109.50;;;5.03;51.05
35655;BME280;21773;50.010;19.972;2023-03-16T03:51:34;99114.19;;;5.01;51.35
35655;BME280;21773;50.010;19.972;2023-03-16T03:54:41;99111.69;;;5.00;51.31
35655;BME280;21773;50.010;19.972;2023-03-16T03:57:48;99116.03;;;5.01;51.34
35655;BME280;21773;50.010;19.972;2023-03-16T04:00:51;99111.69;;;5.00;51.35
35655;BME280;21773;50.010;19.972;2023-03-16T04:03:56;99126.25;;;4.97;51.73
35655;BME280;21773;50.010;19.972;2023-03-16T04:07:00;99134.72;;;5.01;51.39
35655;BME280;21773;50.010;19.972;2023-03-16T04:10:05;99117.41;;;4.97;51.50
35655;BME280;21773;50.010;19.972;2023-03-16T04:13:13;99132.44;;;4.98;51.79
35655;BME280;21773;50.010;19.972;2023-03-16T04:16:16;99141.28;;;4.98;51.97
35655;BME280;21773;50.010;19.972;2023-03-16T04:19:24;99142.63;;;4.94;52.57
35655;BME280;21773;50.010;19.972;2023-03-16T04:22:29;99141.31;;;4.90;52.55
35655;BME280;21773;50.010;19.972;2023-03-16T04:25:33;99141.31;;;4.90;52.45
35655;BME280;21773;50.010;19.972;2023-03-16T04:28:40;99151.25;;;4.82;52.72
35655;BME280;21773;50.010;19.972;2023-03-16T04:31:47;99124.03;;;4.63;52.68
35655;BME280;21773;50.010;19.972;2023-03-16T04:34:54;99154.47;;;4.77;52.78
35655;BME280;21773;50.010;19.972;2023-03-16T04:38:07;99155.34;;;4.69;53.02
35655;BME280;21773;50.010;19.972;2023-03-16T04:41:19;99153.19;;;4.65;53.41
35655;BME280;21773;50.010;19.972;2023-03-16T04:44:30;99156.53;;;4.67;52.93
35655;BME280;21773;50.010;19.972;2023-03-16T04:47:33;99156.06;;;4.63;53.35
35655;BME280;21773;50.010;19.972;2023-03-16T04:50:41;99160.38;;;4.64;53.13
35655;BME280;21773;50.010;19.972;2023-03-16T04:53:44;99160.44;;;4.56;53.82
35655;BME280;21773;50.010;19.972;2023-03-16T04:56:55;99161.09;;;4.58;53.54
35655;BME280;21773;50.010;19.972;2023-03-16T05:00:30;99175.63;;;4.56;53.68
35655;BME280;21773;50.010;19.972;2023-03-16T05:03:41;99173.78;;;4.56;53.95
35655;BME280;21773;50.010;19.972;2023-03-16T05:06:47;99149.22;;;4.38;53.80
35655;BME280;21773;50.010;19.972;2023-03-16T05:09:54;99178.78;;;4.59;53.70
35655;BME280;21773;50.010;19.972;2023-03-16T05:12:58;99184.59;;;4.63;54.04
35655;BME280;21773;50.010;19.972;2023-03-16T05:16:02;99182.56;;;4.65;53.58
35655;BME280;21773;50.010;19.972;2023-03-16T05:19:10;99182.03;;;4.69;53.91
35655;BME280;21773;50.010;19.972;2023-03-16T05:22:15;99185.38;;;4.71;53.59
35655;BME280;21773;50.010;19.972;2023-03-16T05:25:48;99188.72;;;4.73;54.00
35655;BME280;21773;50.010;19.972;2023-03-16T05:28:55;99187.34;;;4.77;54.07
35655;BME280;21773;50.010;19.972;2023-03-16T05:32:01;99184.13;;;4.82;53.60
35655;BME280;21773;50.010;19.972;2023-03-16T05:35:06;99190.06;;;4.92;53.62
35655;BME280;21773;50.010;19.972;2023-03-16T05:38:11;99195.00;;;5.03;53.46
35655;BME280;21773;50.010;19.972;2023-03-16T05:41:17;99193.94;;;5.12;53.26
35655;BME280;21773;50.010;19.972;2023-03-16T05:44:35;99197.28;;;5.29;53.20
35655;BME280;21773;50.010;19.972;2023-03-16T05:47:53;99203.75;;;5.35;52.95
35655;BME280;21773;50.010;19.972;2023-03-16T05:50:56;99196.78;;;5.48;52.73
35655;BME280;21773;50.010;19.972;2023-03-16T05:54:04;99194.88;;;5.57;52.49
35655;BME280;21773;50.010;19.972;2023-03-16T05:57:16;99195.06;;;5.70;52.13
35655;BME280;21773;50.010;19.972;2023-03-16T06:00:23;99209.94;;;5.87;51.99
35655;BME280;21773;50.010;19.972;2023-03-16T06:03:39;99208.66;;;5.98;51.70
35655;BME280;21773;50.010;19.972;2023-03-16T06:06:47;99211.78;;;6.01;51.58
35655;BME280;21773;50.010;19.972;2023-03-16T06:09:56;99208.38;;;6.22;51.20
35655;BME280;21773;50.010;19.972;2023-03-16T06:13:01;99220.09;;;6.36;50.97
35655;BME280;21773;50.010;19.972;2023-03-16T06:16:06;99204.13;;;6.42;50.39
35655;BME280;21773;50.010;19.972;2023-03-16T06:19:10;99221.06;;;6.64;50.37
35655;BME280;21773;50.010;19.972;2023-03-16T06:22:14;99220.66;;;6.82;49.96
35655;BME280;21773;50.010;19.972;2023-03-16T06:25:21;99217.53;;;7.00;49.45
35655;BME280;21773;50.010;19.972;2023-03-16T06:28:26;99233.22;;;7.24;49.02
35655;BME280;21773;50.010;19.972;2023-03-16T06:31:29;99236.41;;;7.55;48.19
35655;BME280;21773;50.010;19.972;2023-03-16T06:34:36;99235.41;;;7.84;47.61
35655;BME280;21773;50.010;19.972;2023-03-16T06:37:40;99243.09;;;7.94;46.99
35655;BME280;21773;50.010;19.972;2023-03-16T06:41:16;99252.28;;;8.34;46.63
35655;BME280;21773;50.010;19.972;2023-03-16T06:44:21;99236.22;;;8.47;45.97
35655;BME280;21773;50.010;19.972;2023-03-16T06:47:32;99253.97;;;8.95;45.08
35655;BME280;21773;50.010;19.972;2023-03-16T06:50:36;99252.59;;;9.19;44.35
35655;BME280;21773;50.010;19.972;2023-03-16T06:53:40;99248.91;;;9.60;43.34
35655;BME280;21773;50.010;19.972;2023-03-16T06:56:45;99253.22;;;10.13;42.24
35655;BME280;21773;50.010;19.972;2023-03-16T06:59:48;99260.88;;;10.42;41.34
35655;BME280;21773;50.010;19.972;2023-03-16T07:02:52;99267.03;;;10.69;40.63
35655;BME280;21773;50.010;19.972;2023-03-16T07:05:55;99266.44;;;11.05;40.02
35655;BME280;21773;50.010;19.972;2023-03-16T07:08:59;99261.53;;;11.58;38.75
35655;BME280;21773;50.010;19.972;2023-03-16T07:12:06;99277.84;;;12.01;37.38
35655;BME280;21773;50.010;19.972;2023-03-16T07:15:09;99273.50;;;12.80;36.78
35655;BME280;21773;50.010;19.972;2023-03-16T07:18:13;99280.31;;;13.49;35.33
35655;BME280;21773;50.010;19.972;2023-03-16T07:21:17;99267.69;;;13.96;34.28
35655;BME280;21773;50.010;19.972;2023-03-16T07:24:21;99283.63;;;14.50;33.25
35655;BME280;21773;50.010;19.972;2023-03-16T07:27:26;99264.81;;;14.72;32.58
35655;BME280;21773;50.010;19.972;2023-03-16T07:30:32;99282.75;;;15.25;32.05
35655;BME280;21773;50.010;19.972;2023-03-16T07:33:36;99267.47;;;15.64;31.56
35655;BME280;21773;50.010;19.972;2023-03-16T07:36:42;99279.56;;;16.23;30.92
35655;BME280;21773;50.010;19.972;2023-03-16T07:39:45;99283.69;;;16.59;29.79
35655;BME280;21773;50.010;19.972;2023-03-16T07:42:53;99294.47;;;16.92;29.29
35655;BME280;21773;50.010;19.972;2023-03-16T07:46:01;99290.41;;;17.16;28.71
35655;BME280;21773;50.010;19.972;2023-03-16T07:49:05;99290.88;;;17.57;28.37
35655;BME280;21773;50.010;19.972;2023-03-16T07:52:11;99287.03;;;17.80;27.97
35655;BME280;21773;50.010;19.972;2023-03-16T07:55:16;99289.84;;;18.22;27.59
35655;BME280;21773;50.010;19.972;2023-03-16T07:58:22;99290.94;;;18.57;27.08
35655;BME280;21773;50.010;19.972;2023-03-16T08:01:26;99275.19;;;18.75;26.22
35655;BME280;21773;50.010;19.972;2023-03-16T08:04:30;99286.78;;;19.02;26.04
35655;BME280;21773;50.010;19.972;2023-03-16T08:07:34;99292.06;;;19.19;25.86
35655;BME280;21773;50.010;19.972;2023-03-16T08:10:46;99285.78;;;19.18;25.89
35655;BME280;21773;50.010;19.972;2023-03-16T08:13:54;99292.41;;;19.42;25.98
35655;BME280;21773;50.010;19.972;2023-03-16T08:17:05;99295.38;;;19.31;25.61
35655;BME280;21773;50.010;19.972;2023-03-16T08:20:11;99302.91;;;19.76;25.24
35655;BME280;21773;50.010;19.972;2023-03-16T08:23:17;99290.34;;;20.10;24.16
35655;BME280;21773;50.010;19.972;2023-03-16T08:26:21;99288.41;;;20.61;23.29
35655;BME280;21773;50.010;19.972;2023-03-16T08:29:31;99305.25;;;21.09;22.90
35655;BME280;21773;50.010;19.972;2023-03-16T08:32:37;99301.09;;;21.22;22.85
35655;BME280;21773;50.010;19.972;2023-03-16T08:35:43;99302.34;;;21.54;22.17
35655;BME280;21773;50.010;19.972;2023-03-16T08:38:47;99307.06;;;21.88;21.61
35655;BME280;21773;50.010;19.972;2023-03-16T08:42:10;99309.44;;;20.86;22.68
35655;BME280;21773;50.010;19.972;2023-03-16T08:45:21;99307.13;;;21.24;21.94
35655;BME280;21773;50.010;19.972;2023-03-16T08:48:25;99312.97;;;22.05;22.43
35655;BME280;21773;50.010;19.972;2023-03-16T08:51:30;99300.34;;;21.06;22.17
35655;BME280;21773;50.010;19.972;2023-03-16T08:54:33;99305.38;;;19.87;22.60
35655;BME280;21773;50.010;19.972;2023-03-16T08:57:36;99307.88;;;20.35;23.03
35655;BME280;21773;50.010;19.972;2023-03-16T09:00:42;99308.16;;;20.38;22.78
35655;BME280;21773;50.010;19.972;2023-03-16T09:03:48;99310.34;;;20.51;22.91
35655;BME280;21773;50.010;19.972;2023-03-16T09:06:52;99311.66;;;20.79;23.29
35655;BME280;21773;50.010;19.972;2023-03-16T09:10:10;99315.78;;;19.85;23.75
35655;BME280;21773;50.010;19.972;2023-03-16T09:13:16;99309.78;;;19.11;24.07
35655;BME280;21773;50.010;19.972;2023-03-16T09:16:24;99306.47;;;19.86;23.49
35655;BME280;21773;50.010;19.972;2023-03-16T09:19:29;99306.19;;;20.64;22.69
35655;BME280;21773;50.010;19.972;2023-03-16T09:22:51;99312.34;;;19.33;23.63
35655;BME280;21773;50.010;19.972;2023-03-16T09:25:56;99315.66;;;18.41;24.43
35655;BME280;21773;50.010;19.972;2023-03-16T09:29:00;99312.88;;;18.73;24.79
35655;BME280;21773;50.010;19.972;2023-03-16T09:32:06;99316.00;;;19.54;23.92
35655;BME280;21773;50.010;19.972;2023-03-16T09:35:09;99319.59;;;19.69;22.97
35655;BME280;21773;50.010;19.972;2023-03-16T09:38:14;99306.13;;;18.85;24.11
35655;BME280;21773;50.010;19.972;2023-03-16T09:41:30;99309.78;;;19.88;23.58
35655;BME280;21773;50.010;19.972;2023-03-16T09:44:45;99298.56;;;20.41;21.77
35655;BME280;21773;50.010;19.972;2023-03-16T09:47:57;99308.13;;;19.82;22.43
35655;BME280;21773;50.010;19.972;2023-03-16T09:51:06;99311.25;;;19.29;22.75
35655;BME280;21773;50.010;19.972;2023-03-16T09:54:22;99311.13;;;19.03;23.20
35655;BME280;21773;50.010;19.972;2023-03-16T09:57:29;99309.66;;;18.07;23.84
35655;BME280;21773;50.010;19.972;2023-03-16T10:00:38;99313.59;;;18.58;23.78
35655;BME280;21773;50.010;19.972;2023-03-16T10:03:56;99307.50;;;18.88;23.50
35655;BME280;21773;50.010;19.972;2023-03-16T10:07:14;99304.22;;;19.53;22.86
35655;BME280;21773;50.010;19.972;2023-03-16T10:10:37;99317.69;;;19.02;23.57
35655;BME280;21773;50.010;19.972;2023-03-16T10:13:47;99324.44;;;18.85;22.82
35655;BME280;21773;50.010;19.972;2023-03-16T10:16:56;99318.44;;;18.51;23.36
35655;BME280;21773;50.010;19.972;2023-03-16T10:20:05;99324.28;;;18.59;22.30
35655;BME280;21773;50.010;19.972;2023-03-16T10:23:16;99320.56;;;19.38;22.00
35655;BME280;21773;50.010;19.972;2023-03-16T10:26:22;99323.75;;;19.15;22.33
35655;BME280;21773;50.010;19.972;2023-03-16T10:29:29;99314.75;;;19.19;22.03
35655;BME280;21773;50.010;19.972;2023-03-16T10:32:33;99324.56;;;20.08;21.01
35655;BME280;21773;50.010;19.972;2023-03-16T10:35:45;99333.47;;;19.48;21.43
35655;BME280;21773;50.010;19.972;2023-03-16T10:38:50;99332.41;;;18.96;21.71
35655;BME280;21773;50.010;19.972;2023-03-16T10:41:56;99333.03;;;18.30;22.32
35655;BME280;21773;50.010;19.972;2023-03-16T10:45:01;99342.25;;;17.65;23.08
35655;BME280;21773;50.010;19.972;2023-03-16T10:48:06;99331.78;;;16.92;24.04
35655;BME280;21773;50.010;19.972;2023-03-16T10:51:12;99342.25;;;16.44;24.77
35655;BME280;21773;50.010;19.972;2023-03-16T10:54:24;99349.50;;;16.06;24.77
35655;BME280;21773;50.010;19.972;2023-03-16T10:57:31;99333.91;;;16.68;24.16
35655;BME280;21773;50.010;19.972;2023-03-16T11:00:40;99334.00;;;17.60;23.94
35655;BME280;21773;50.010;19.972;2023-03-16T11:03:47;99336.59;;;17.50;22.36
35655;BME280;21773;50.010;19.972;2023-03-16T11:06:55;99325.50;;;17.78;22.48
35655;BME280;21773;50.010;19.972;2023-03-16T11:09:58;99327.88;;;18.01;22.52
35655;BME280;21773;50.010;19.972;2023-03-16T11:13:07;99322.56;;;18.90;21.00
35655;BME280;21773;50.010;19.972;2023-03-16T11:16:21;99319.69;;;19.22;21.08
35655;BME280;21773;50.010;19.972;2023-03-16T11:19:28;99320.94;;;18.99;20.62
35655;BME280;21773;50.010;19.972;2023-03-16T11:22:33;99329.69;;;19.59;19.96
35655;BME280;21773;50.010;19.972;2023-03-16T11:25:42;99325.09;;;20.15;19.64
35655;BME280;21773;50.010;19.972;2023-03-16T11:28:51;99318.00;;;20.59;19.04
35655;BME280;21773;50.010;19.972;2023-03-16T11:32:03;99324.44;;;21.09;18.87
35655;BME280;21773;50.010;19.972;2023-03-16T11:35:12;99326.03;;;21.35;18.99
35655;BME280;21773;50.010;19.972;2023-03-16T11:38:19;99328.94;;;20.19;19.98
35655;BME280;21773;50.010;19.972;2023-03-16T11:41:27;99329.28;;;19.25;20.93
35655;BME280;21773;50.010;19.972;2023-03-16T11:44:43;99327.06;;;19.22;21.33
35655;BME280;21773;50.010;19.972;2023-03-16T11:48:05;99330.47;;;19.44;20.45
35655;BME280;21773;50.010;19.972;2023-03-16T11:51:24;99325.63;;;19.86;20.06
35655;BME280;21773;50.010;19.972;2023-03-16T11:54:42;99325.94;;;20.25;19.97
35655;BME280;21773;50.010;19.972;2023-03-16T11:58:00;99316.84;;;20.91;19.31
35655;BME280;21773;50.010;19.972;2023-03-16T12:01:11;99324.38;;;21.34;19.69
35655;BME280;21773;50.010;19.972;2023-03-16T12:04:38;99321.03;;;20.38;20.88
35655;BME280;21773;50.010;19.972;2023-03-16T12:07:55;99336.41;;;19.36;21.59
35655;BME280;21773;50.010;19.972;2023-03-16T12:11:04;99331.22;;;18.40;22.47
35655;BME280;21773;50.010;19.972;2023-03-16T12:14:13;99328.56;;;17.87;22.94
35655;BME280;21773;50.010;19.972;2023-03-16T12:17:22;99329.06;;;16.92;23.55
35655;BME280;21773;50.010;19.972;2023-03-16T12:20:30;99330.25;;;17.66;23.25
35655;BME280;21773;50.010;19.972;2023-03-16T12:23:39;99314.22;;;18.33;21.89
35655;BME280;21773;50.010;19.972;2023-03-16T12:26:45;99317.41;;;18.99;21.56
35655;BME280;21773;50.010;19.972;2023-03-16T12:29:57;99326.16;;;18.22;22.62
35655;BME280;21773;50.010;19.972;2023-03-16T12:33:08;99335.22;;;17.47;23.74
35655;BME280;21773;50.010;19.972;2023-03-16T12:36:41;99331.56;;;16.76;24.76
35655;BME280;21773;50.010;19.972;2023-03-16T12:40:01;99326.91;;;16.22;25.18
35655;BME280;21773;50.010;19.972;2023-03-16T12:43:23;99323.19;;;16.28;25.20
35655;BME280;21773;50.010;19.972;2023-03-16T12:46:39;99311.72;;;16.98;24.20
35655;BME280;21773;50.010;19.972;2023-03-16T12:49:43;99308.06;;;17.09;23.42
35655;BME280;21773;50.010;19.972;2023-03-16T12:52:48;99310.19;;;16.85;22.98
35655;BME280;21773;50.010;19.972;2023-03-16T12:55:52;99313.19;;;17.05;23.63
35655;BME280;21773;50.010;19.972;2023-03-16T12:59:00;99312.59;;;17.03;21.50
35655;BME280;21773;50.010;19.972;2023-03-16T13:02:13;99304.94;;;17.70;21.27
35655;BME280;21773;50.010;19.972;2023-03-16T13:05:28;99308.59;;;17.81;21.46
35655;BME280;21773;50.010;19.972;2023-03-16T13:08:40;99304.97;;;17.49;22.17
35655;BME280;21773;50.010;19.972;2023-03-16T13:11:47;99314.44;;;17.19;22.00
35655;BME280;21773;50.010;19.972;2023-03-16T13:14:53;99308.91;;;16.71;23.07
35655;BME280;21773;50.010;19.972;2023-03-16T13:18:20;99318.09;;;16.31;23.42
35655;BME280;21773;50.010;19.972;2023-03-16T13:21:34;99326.63;;;15.90;24.53
35655;BME280;21773;50.010;19.972;2023-03-16T13:24:38;99329.63;;;15.60;25.75
35655;BME280;21773;50.010;19.972;2023-03-16T13:27:43;99333.31;;;15.14;26.34
35655;BME280;21773;50.010;19.972;2023-03-16T13:30:49;99327.47;;;14.82;25.29
35655;BME280;21773;50.010;19.972;2023-03-16T13:33:54;99328.13;;;15.12;25.51
35655;BME280;21773;50.010;19.972;2023-03-16T13:37:00;99326.59;;;15.56;24.94
35655;BME280;21773;50.010;19.972;2023-03-16T13:40:17;99324.44;;;15.87;24.26
35655;BME280;21773;50.010;19.972;2023-03-16T13:43:22;99324.25;;;16.43;24.59
35655;BME280;21773;50.010;19.972;2023-03-16T13:46:28;99321.41;;;16.88;24.06
35655;BME280;21773;50.010;19.972;2023-03-16T13:49:32;99322.28;;;17.16;23.22
35655;BME280;21773;50.010;19.972;2023-03-16T13:52:36;99313.50;;;17.57;22.57
35655;BME280;21773;50.010;19.972;2023-03-16T13:55:42;99321.16;;;17.82;21.64
35655;BME280;21773;50.010;19.972;2023-03-16T13:58:47;99323.06;;;18.13;21.37
35655;BME280;21773;50.010;19.972;2023-03-16T14:01:56;99319.03;;;18.21;20.90
35655;BME280;21773;50.010;19.972;2023-03-16T14:05:08;99318.91;;;18.43;20.95
35655;BME280;21773;50.010;19.972;2023-03-16T14:08:16;99322.44;;;18.38;20.31
35655;BME280;21773;50.010;19.972;2023-03-16T14:11:20;99332.94;;;18.19;20.07
35655;BME280;21773;50.010;19.972;2023-03-16T14:14:26;99331.63;;;18.22;20.21
35655;BME280;21773;50.010;19.972;2023-03-16T14:17:31;99323.88;;;18.14;20.08
35655;BME280;21773;50.010;19.972;2023-03-16T14:20:34;99328.84;;;18.17;20.67
35655;BME280;21773;50.010;19.972;2023-03-16T14:23:44;99329.53;;;18.02;20.55
35655;BME280;21773;50.010;19.972;2023-03-16T14:26:48;99330.25;;;17.93;20.90
35655;BME280;21773;50.010;19.972;2023-03-16T14:29:57;99328.34;;;17.66;21.20
35655;BME280;21773;50.010;19.972;2023-03-16T14:33:04;99329.56;;;17.54;21.35
35655;BME280;21773;50.010;19.972;2023-03-16T14:36:13;99329.28;;;17.55;21.33
35655;BME280;21773;50.010;19.972;2023-03-16T14:39:19;99333.38;;;17.53;21.42
35655;BME280;21773;50.010;19.972;2023-03-16T14:42:26;99335.91;;;16.94;21.47
35655;BME280;21773;50.010;19.972;2023-03-16T14:45:31;99338.94;;;16.42;22.29
35655;BME280;21773;50.010;19.972;2023-03-16T14:48:37;99341.66;;;15.92;22.91
35655;BME280;21773;50.010;19.972;2023-03-16T14:51:43;99340.66;;;15.53;23.64
35655;BME280;21773;50.010;19.972;2023-03-16T14:54:50;99341.78;;;15.29;24.05
35655;BME280;21773;50.010;19.972;2023-03-16T14:57:54;99349.16;;;15.05;24.28
35655;BME280;21773;50.010;19.972;2023-03-16T15:00:57;99348.97;;;14.95;24.53
35655;BME280;21773;50.010;19.972;2023-03-16T15:04:03;99349.34;;;15.15;24.37
35655;BME280;21773;50.010;19.972;2023-03-16T15:07:20;99345.31;;;15.30;24.33
35655;BME280;21773;50.010;19.972;2023-03-16T15:10:26;99342.84;;;15.28;24.26
35655;BME280;21773;50.010;19.972;2023-03-16T15:13:31;99344.28;;;15.19;24.26
35655;BME280;21773;50.010;19.972;2023-03-16T15:16:53;99338.25;;;15.29;24.32
35655;BME280;21773;50.010;19.972;2023-03-16T15:19:58;99339.34;;;15.44;24.44
35655;BME280;21773;50.010;19.972;2023-03-16T15:23:02;99340.69;;;15.70;24.27
35655;BME280;21773;50.010;19.972;2023-03-16T15:26:07;99336.88;;;15.83;24.15
35655;BME280;21773;50.010;19.972;2023-03-16T15:29:11;99335.34;;;15.75;24.22
35655;BME280;21773;50.010;19.972;2023-03-16T15:32:15;99343.38;;;15.53;24.63
35655;BME280;21773;50.010;19.972;2023-03-16T15:35:20;99326.22;;;15.25;24.56
35655;BME280;21773;50.010;19.972;2023-03-16T15:38:26;99333.06;;;15.15;24.68
35655;BME280;21773;50.010;19.972;2023-03-16T15:41:29;99337.53;;;15.22;24.13
35655;BME280;21773;50.010;19.972;2023-03-16T15:44:42;99330.63;;;15.14;24.46
35655;BME280;21773;50.010;19.972;2023-03-16T15:47:46;99336.03;;;15.14;23.84
35655;BME280;21773;50.010;19.972;2023-03-16T15:50:53;99340.31;;;14.98;24.12
35655;BME280;21773;50.010;19.972;2023-03-16T15:53:58;99340.31;;;14.87;24.28
35655;BME280;21773;50.010;19.972;2023-03-16T15:57:03;99349.94;;;14.66;24.10
35655;BME280;21773;50.010;19.972;2023-03-16T16:00:24;99350.34;;;14.28;24.67
35655;BME280;21773;50.010;19.972;2023-03-16T16:03:29;99356.66;;;13.99;25.21
35655;BME280;21773;50.010;19.972;2023-03-16T16:06:33;99355.06;;;13.79;25.89
35655;BME280;21773;50.010;19.972;2023-03-16T16:09:37;99357.66;;;13.74;25.67
35655;BME280;21773;50.010;19.972;2023-03-16T16:12:40;99366.59;;;13.63;25.76
35655;BME280;21773;50.010;19.972;2023-03-16T16:15:43;99367.09;;;13.54;25.71
35655;BME280;21773;50.010;19.972;2023-03-16T16:18:47;99374.75;;;13.27;26.45
35655;BME280;21773;50.010;19.972;2023-03-16T16:21:52;99369.19;;;13.22;26.36
35655;BME280;21773;50.010;19.972;2023-03-16T16:24:56;99376.09;;;12.99;26.94
35655;BME280;21773;50.010;19.972;2023-03-16T16:27:59;99370.59;;;12.88;27.35